createdAt,value
2016-11-24T18:31:17.664Z,101947
2016-11-24T18:31:33.649Z,101941
2016-11-24T18:31:46.755Z,101928
2016-11-24T18:32:08.567Z,101944
2016-11-24T18:32:27.605Z,101938
2016-11-24T18:32:40.573Z,101941
2016-11-24T18:32:59.898Z,101938
2016-11-24T18:33:15.811Z,101938
2016-11-24T18:33:34.503Z,101944
2016-11-24T18:33:50.451Z,101938
2016-11-24T18:34:06.552Z,101950
2016-11-24T18:34:28.278Z,101947
2016-11-24T18:34:44.359Z,101957
2016-11-24T18:35:00.202Z,101944
2016-11-24T18:35:16.206Z,101950
2016-11-24T18:35:37.974Z,101944
2016-11-24T18:35:51.133Z,101953
2016-11-24T18:36:04.236Z,101957
2016-11-24T18:36:22.999Z,101947
2016-11-24T18:36:41.964Z,101957
2016-11-24T18:37:03.690Z,101941
2016-11-24T18:37:25.391Z,101960
2016-11-24T18:37:41.342Z,101947
2016-11-24T18:37:54.327Z,101947
2016-11-24T18:38:10.329Z,101950
2016-11-24T18:38:23.374Z,101947
2016-11-24T18:38:39.435Z,101953
2016-11-24T18:38:52.518Z,101950
2016-11-24T18:39:05.705Z,101956
2016-11-24T18:39:24.477Z,101960
2016-11-24T18:39:43.181Z,101957
2016-11-24T18:40:02.611Z,101950
2016-11-24T18:40:19.327Z,101944
2016-11-24T18:40:39.626Z,101954
2016-11-24T18:41:04.387Z,101950
2016-11-24T18:41:23.984Z,101966
2016-11-24T18:41:41.599Z,101950
2016-11-24T18:42:00.854Z,101947
2016-11-24T18:42:20.227Z,101941
2016-11-24T18:42:39.571Z,101953
2016-11-24T18:42:53.874Z,101950
2016-11-24T18:43:10.213Z,101950
2016-11-24T18:43:26.521Z,101957
2016-11-24T18:43:43.247Z,101957
2016-11-24T18:44:02.055Z,101957
2016-11-24T18:44:19.883Z,101960
2016-11-24T18:44:40.453Z,101957
2016-11-24T18:45:06.635Z,101956
2016-11-24T18:45:21.670Z,101947
2016-11-24T18:45:38.715Z,101960
2016-11-24T18:46:00.737Z,101957
2016-11-24T18:46:19.589Z,101963
2016-11-24T18:46:35.890Z,101963
2016-11-24T18:46:58.004Z,101963
2016-11-24T18:47:14.177Z,101960
2016-11-24T18:47:33.332Z,101963
2016-11-24T18:47:54.756Z,101969
2016-11-24T18:48:11.822Z,101972
2016-11-24T18:48:31.181Z,101966
2016-11-24T18:48:49.865Z,101960
2016-11-24T18:49:14.518Z,101978
2016-11-24T18:49:35.348Z,101959
2016-11-24T18:49:54.096Z,101975
2016-11-24T18:50:15.296Z,101960
2016-11-24T18:50:33.115Z,101975
2016-11-24T18:50:56.199Z,101963
2016-11-24T18:51:18.824Z,101975
2016-11-24T18:51:37.398Z,101972
2016-11-24T18:52:00.181Z,101966
2016-11-24T18:52:22.873Z,101960
2016-11-24T18:52:49.779Z,101979
2016-11-24T18:53:06.668Z,101966
2016-11-24T18:53:27.865Z,101982
2016-11-24T18:53:48.970Z,101973
2016-11-24T18:54:07.283Z,101976
2016-11-24T18:54:24.238Z,101969
2016-11-24T18:54:49.177Z,101976
2016-11-24T18:55:15.474Z,101979
2016-11-24T18:55:39.758Z,101973
2016-11-24T18:55:59.643Z,101979
2016-11-24T18:56:20.548Z,101970
2016-11-24T18:56:38.371Z,101985
2016-11-24T18:56:57.156Z,101985
2016-11-24T18:57:13.638Z,101982
2016-11-24T18:57:38.333Z,101988
2016-11-24T18:57:52.494Z,101982
2016-11-24T18:58:08.472Z,101979
2016-11-24T18:58:25.510Z,101979
2016-11-24T18:58:44.221Z,101988
2016-11-24T18:59:01.385Z,101970
2016-11-24T18:59:21.928Z,101982
2016-11-24T18:59:38.501Z,101976
2016-11-24T18:59:56.779Z,101995
2016-11-24T19:00:17.420Z,101989
2016-11-24T19:00:38.580Z,101982
2016-11-24T19:00:53.206Z,101979
2016-11-24T19:01:12.483Z,101982
2016-11-24T19:01:32.708Z,101979
2016-11-24T19:01:50.731Z,101986
2016-11-24T19:02:10.511Z,101989
2016-11-24T19:02:27.410Z,101986
2016-11-24T19:02:46.398Z,101983
2016-11-24T19:03:04.522Z,101980
2016-11-24T19:03:23.055Z,101980
2016-11-24T19:03:47.136Z,101970
2016-11-24T19:04:04.578Z,101976
2016-11-24T19:04:26.809Z,101973
2016-11-24T19:04:49.610Z,101973
2016-11-24T19:05:12.377Z,101973
2016-11-24T19:05:30.749Z,101976
2016-11-24T19:05:51.275Z,101980
2016-11-24T19:06:08.665Z,101989
2016-11-24T19:06:25.442Z,101989
2016-11-24T19:06:43.260Z,101982
2016-11-24T19:06:59.444Z,101982
2016-11-24T19:07:15.201Z,101982
2016-11-24T19:07:38.355Z,101979
2016-11-24T19:07:59.731Z,101979
2016-11-24T19:08:14.457Z,101976
2016-11-24T19:08:33.580Z,101979
2016-11-24T19:08:57.015Z,101976
2016-11-24T19:09:20.239Z,101973
2016-11-24T19:09:40.139Z,101973
2016-11-24T19:09:57.115Z,101979
2016-11-24T19:10:16.763Z,101985
2016-11-24T19:10:33.674Z,101985
2016-11-24T19:10:51.711Z,101982
2016-11-24T19:11:10.628Z,101976
2016-11-24T19:11:27.391Z,101973
2016-11-24T19:11:44.953Z,101966
2016-11-24T19:12:07.449Z,101973
2016-11-24T19:12:27.170Z,101973
2016-11-24T19:12:41.762Z,101973
2016-11-24T19:13:04.349Z,101979
2016-11-24T19:13:27.494Z,101979
2016-11-24T19:13:50.318Z,101973
2016-11-24T19:14:07.392Z,101982
2016-11-24T19:14:29.043Z,101979
2016-11-24T19:14:52.228Z,101988
2016-11-24T19:15:06.560Z,101991
2016-11-24T19:15:24.405Z,101979
2016-11-24T19:15:37.579Z,101988
2016-11-24T19:15:53.374Z,101985
2016-11-24T19:16:18.678Z,101991
2016-11-24T19:16:35.309Z,101982
2016-11-24T19:16:48.276Z,101994
2016-11-24T19:17:01.284Z,101982
2016-11-24T19:17:15.595Z,101994
2016-11-24T19:17:32.060Z,101976
2016-11-24T19:17:50.362Z,101991
2016-11-24T19:18:08.966Z,101982
2016-11-24T19:18:27.872Z,101998
2016-11-24T19:18:47.766Z,101994
2016-11-24T19:19:04.153Z,101991
2016-11-24T19:19:21.957Z,101991
2016-11-24T19:19:39.769Z,101985
2016-11-24T19:20:00.034Z,102007
2016-11-24T19:20:16.657Z,102001
2016-11-24T19:20:34.517Z,101994
2016-11-24T19:20:54.116Z,101998
2016-11-24T19:21:14.400Z,101979
2016-11-24T19:21:28.216Z,101991
2016-11-24T19:21:44.795Z,101994
2016-11-24T19:22:04.401Z,102001
2016-11-24T19:22:24.101Z,101994
2016-11-24T19:22:44.451Z,101982
2016-11-24T19:23:07.816Z,101998
2016-11-24T19:23:25.212Z,101994
2016-11-24T19:23:42.139Z,101998
2016-11-24T19:23:59.275Z,101994
2016-11-24T19:24:15.891Z,101994
2016-11-24T19:24:33.233Z,102004
2016-11-24T19:24:49.484Z,101982
2016-11-24T19:25:06.159Z,101994
2016-11-24T19:25:23.009Z,101994
2016-11-24T19:25:36.415Z,101998
2016-11-24T19:25:54.074Z,101998
2016-11-24T19:26:14.227Z,101998
2016-11-24T19:26:34.161Z,102004
2016-11-24T19:26:53.732Z,101991
